Погода Бастусна неделю

Сан-Паулу, Бразилия

23 - 29 июля
  • 23июля
    Сегодня
    +17°
    +32°
    Ясно и безоблачно
    ВремяПогодаТемператураВлажностьДавлениеВетер, м/сВероятность осадков
    00:00Ясно и безоблачно+20°C48 %728 мм2.9 м/с5 %
    03:00Ясно и безоблачно+19°C54 %728 мм3.7 м/с5 %
    06:00Ясно и безоблачно+18°C61 %728 мм3.8 м/с5 %
    09:00Ясно и безоблачно+22°C47 %730 мм3.4 м/с5 %
    12:00Ясно и безоблачно+29°C25 %730 мм3.7 м/с5 %
    15:00Ясно и безоблачно+31°C20 %728 мм2.6 м/с5 %
    18:00Ясно и безоблачно+28°C27 %727 мм2.1 м/с5 %
    21:00Ясно и безоблачно+24°C33 %728 мм2.9 м/с5 %
  • 24июля
    Среда
    +16°
    +33°
    Небольшая облачность
    ВремяПогодаТемператураВлажностьДавлениеВетер, м/сВероятность осадков
    00:00Небольшая облачность+21°C41 %728 мм3.7 м/с5 %
    03:00Ясно и безоблачно+18°C47 %727 мм3.7 м/с5 %
    06:00Ясно и безоблачно+17°C45 %727 мм4.0 м/с5 %
    09:00Ясно и безоблачно+22°C38 %729 мм3.6 м/с5 %
    12:00Небольшая облачность+30°C23 %730 мм4.1 м/с5 %
    15:00Небольшая облачность+32°C19 %727 мм2.6 м/с5 %
    18:00Практически безоблачно+28°C26 %727 мм2.1 м/с5 %
    21:00Практически безоблачно+25°C32 %727 мм2.4 м/с5 %
  • 25июля
    Четверг
    +18°
    +33°
    Ясно и безоблачно
    ВремяПогодаТемператураВлажностьДавлениеВетер, м/сВероятность осадков
    00:00Ясно и безоблачно+22°C37 %727 мм2.4 м/с5 %
    03:00Ясно и безоблачно+19°C44 %726 мм2.5 м/с5 %
    06:00Ясно и безоблачно+17°C52 %726 мм2.5 м/с5 %
    09:00Ясно и безоблачно+22°C41 %728 мм2.9 м/с5 %
    12:00Ясно и безоблачно+31°C25 %728 мм2.9 м/с5 %
    15:00Ясно и безоблачно+33°C20 %726 мм1.5 м/с5 %
    18:00Ясно и безоблачно+29°C26 %725 мм1.2 м/с5 %
    21:00Ясно и безоблачно+25°C32 %725 мм1.6 м/с5 %
  • 26июля
    Пятница
    +19°
    +33°
    Облачно с прояснениями
    ВремяПогодаТемператураВлажностьДавлениеВетер, м/сВероятность осадков
    00:00Ясно и безоблачно+21°C40 %725 мм2.1 м/с5 %
    03:00Облачно с прояснениями+18°C51 %724 мм2.4 м/с5 %
    06:00Облачно с прояснениями+19°C50 %725 мм2.9 м/с5 %
    09:00Облачно с прояснениями+23°C39 %727 мм2.7 м/с5 %
    12:00Облачно с прояснениями+31°C21 %727 мм3.8 м/с5 %
    15:00Облачно с прояснениями+33°C18 %725 мм2.0 м/с5 %
    18:00Облачно с прояснениями+29°C25 %725 мм1.9 м/с5 %
    21:00Облачно с прояснениями+26°C30 %726 мм2.7 м/с5 %
  • 27июля
    Суббота
    +18°
    +34°
    Ясно и безоблачно
    ВремяПогодаТемператураВлажностьДавлениеВетер, м/сВероятность осадков
    00:00Облачно с прояснениями+23°C37 %726 мм2.5 м/с5 %
    03:00Облачно с прояснениями+20°C41 %725 мм2.6 м/с5 %
    06:00Небольшая облачность+20°C44 %725 мм3.0 м/с5 %
    09:00Практически безоблачно+23°C37 %727 мм3.2 м/с5 %
    12:00Практически безоблачно+32°C22 %727 мм3.8 м/с5 %
    15:00Ясно и безоблачно+33°C17 %725 мм1.9 м/с5 %
    18:00Ясно и безоблачно+30°C25 %725 мм1.9 м/с5 %
    21:00Практически безоблачно+25°C30 %726 мм2.0 м/с5 %
Мы используем cookies
Соглашаюсь